Jay Michael — WDD2051 — position and weather

sailwx.info

Track history (hours):
 
Tides and Currents Weather Stations Pressure Air Temp Water Temp Dewpoint Dewpoint Depression Visibility Wind Speed Wind Dir Waves Ship Positions

Jay Michael

Owner: Sterling Equipment Inc., Quincy, MA. More information available from US FCC via Universal Licensing System and Coast Guard Vessel Documentation Center.

Last reported at 2014-Oct-01 03:07 UTC. Time now 2014-Oct-01 04:00 UTC.
Position N 26°29' W 080°00'.

Length 21 m.

Type: Tug. MMSI: 367110280.

Date/timePositionNaut miles runAvg speedWind from/ knotsBaromVisibWave heightAir tempDewpointWater temp
2014-Oct-01 03:07N 26°29' W 080°00'3 3.6
2014-Oct-01 02:17N 26°32' W 079°60'5 3.9
2014-Oct-01 01:06N 26°36' W 079°59'12 4.3
2014-Sep-30 22:21N 26°48' W 079°58'3 4.2
2014-Sep-30 21:33N 26°52' W 079°57'4 4.2
2014-Sep-30 20:33N 26°56' W 079°58'4 4.4
2014-Sep-30 19:33N 26°60' W 080°00'  
2014-Sep-25 15:11N 34°32' W 076°50'3 5.0
2014-Sep-25 14:33N 34°34' W 076°47'5 5.1
2014-Sep-25 13:33N 34°38' W 076°43'3 3.1
2014-Sep-25 12:33N 34°40' W 076°40'2 2.4
2014-Sep-25 11:33N 34°42' W 076°41'1 0.9
2014-Sep-25 10:33N 34°43' W 076°42'0 0.0
2014-Sep-25 09:33N 34°43' W 076°42'0 0.0
2014-Sep-25 08:33N 34°43' W 076°42'0 0.0
2014-Sep-25 07:33N 34°43' W 076°42'0 0.0
2014-Sep-25 06:33N 34°43' W 076°42'0 0.0
2014-Sep-25 05:33N 34°43' W 076°42'0 0.0
2014-Sep-25 04:34N 34°43' W 076°42'0 0.0
2014-Sep-25 03:33N 34°43' W 076°42'0 0.0
2014-Sep-25 02:33N 34°43' W 076°42'0 0.0
2014-Sep-25 01:33N 34°43' W 076°42'0 0.0
2014-Sep-25 00:33N 34°43' W 076°42'0 0.0
2014-Sep-24 23:33N 34°43' W 076°42'0 0.0
2014-Sep-24 22:33N 34°43' W 076°42'0 0.0
2014-Sep-24 21:33N 34°43' W 076°42'0 0.0
2014-Sep-24 20:33N 34°43' W 076°42'0 0.0
2014-Sep-24 19:33N 34°43' W 076°42'0 0.0
2014-Sep-24 18:33N 34°43' W 076°42'0 0.0
2014-Sep-24 17:33N 34°43' W 076°42'0 0.0
2014-Sep-24 16:33N 34°43' W 076°42'0 0.0
2014-Sep-24 15:33N 34°43' W 076°42'0 0.0
2014-Sep-24 14:33N 34°43' W 076°42'0 0.0
2014-Sep-24 13:33N 34°43' W 076°42'0 0.0
2014-Sep-24 12:33N 34°43' W 076°42'0 0.0
2014-Sep-24 11:33N 34°43' W 076°42'0 0.0
2014-Sep-24 10:33N 34°43' W 076°42'0 0.0
2014-Sep-24 09:33N 34°43' W 076°42'0 0.0
2014-Sep-24 08:34N 34°43' W 076°42'0 0.0
2014-Sep-24 07:33N 34°43' W 076°42'0 0.0
2014-Sep-24 06:33N 34°43' W 076°42'0 0.0
2014-Sep-24 05:33N 34°43' W 076°42'0 0.0
2014-Sep-24 04:33N 34°43' W 076°42'0 0.0
2014-Sep-24 03:33N 34°43' W 076°42'0 0.0
2014-Sep-24 02:33N 34°43' W 076°42'0 0.0
2014-Sep-24 01:33N 34°43' W 076°42'0 0.0
2014-Sep-24 00:33N 34°43' W 076°42'0 0.0
2014-Sep-23 23:33N 34°43' W 076°42'0 0.0
2014-Sep-23 22:33N 34°43' W 076°42'0 0.0
2014-Sep-23 21:33N 34°43' W 076°42'3 3.3
2014-Sep-23 20:33N 34°40' W 076°40'4 4.2
2014-Sep-23 19:33N 34°36' W 076°38'1 1.2
2014-Sep-23 18:33N 34°37' W 076°38'1 0.6
2014-Sep-23 17:33N 34°38' W 076°37'4 3.9
2014-Sep-23 16:33N 34°34' W 076°39'3 3.3
2014-Sep-23 15:33N 34°31' W 076°41'  
Track history (hours):
 
Tides and Currents Weather Stations Pressure Air Temp Water Temp Dewpoint Dewpoint Depression Visibility Wind Speed Wind Dir Waves Ship Positions

Jay Michael

Owner: Sterling Equipment Inc., Quincy, MA. More information available from US FCC via Universal Licensing System and Coast Guard Vessel Documentation Center.

Last reported at 2014-Oct-01 03:07 UTC. Time now 2014-Oct-01 04:00 UTC.
Position N 26°29' W 080°00'.

Length 21 m.

Type: Tug. MMSI: 367110280.

Date/timePositionNaut miles runAvg speedWind from/ knotsBaromVisibWave heightAir tempDewpointWater temp
2014-Oct-01 03:07N 26°29' W 080°00'3 3.6
2014-Oct-01 02:17N 26°32' W 079°60'5 3.9
2014-Oct-01 01:06N 26°36' W 079°59'12 4.3
2014-Sep-30 22:21N 26°48' W 079°58'3 4.2
2014-Sep-30 21:33N 26°52' W 079°57'4 4.2
2014-Sep-30 20:33N 26°56' W 079°58'4 4.4
2014-Sep-30 19:33N 26°60' W 080°00'  
2014-Sep-25 15:11N 34°32' W 076°50'3 5.0
2014-Sep-25 14:33N 34°34' W 076°47'5 5.1
2014-Sep-25 13:33N 34°38' W 076°43'3 3.1
2014-Sep-25 12:33N 34°40' W 076°40'2 2.4
2014-Sep-25 11:33N 34°42' W 076°41'1 0.9
2014-Sep-25 10:33N 34°43' W 076°42'0 0.0
2014-Sep-25 09:33N 34°43' W 076°42'0 0.0
2014-Sep-25 08:33N 34°43' W 076°42'0 0.0
2014-Sep-25 07:33N 34°43' W 076°42'0 0.0
2014-Sep-25 06:33N 34°43' W 076°42'0 0.0
2014-Sep-25 05:33N 34°43' W 076°42'0 0.0
2014-Sep-25 04:34N 34°43' W 076°42'0 0.0
2014-Sep-25 03:33N 34°43' W 076°42'0 0.0
2014-Sep-25 02:33N 34°43' W 076°42'0 0.0
2014-Sep-25 01:33N 34°43' W 076°42'0 0.0
2014-Sep-25 00:33N 34°43' W 076°42'0 0.0
2014-Sep-24 23:33N 34°43' W 076°42'0 0.0
2014-Sep-24 22:33N 34°43' W 076°42'0 0.0
2014-Sep-24 21:33N 34°43' W 076°42'0 0.0
2014-Sep-24 20:33N 34°43' W 076°42'0 0.0
2014-Sep-24 19:33N 34°43' W 076°42'0 0.0
2014-Sep-24 18:33N 34°43' W 076°42'0 0.0
2014-Sep-24 17:33N 34°43' W 076°42'0 0.0
2014-Sep-24 16:33N 34°43' W 076°42'0 0.0
2014-Sep-24 15:33N 34°43' W 076°42'0 0.0
2014-Sep-24 14:33N 34°43' W 076°42'0 0.0
2014-Sep-24 13:33N 34°43' W 076°42'0 0.0
2014-Sep-24 12:33N 34°43' W 076°42'0 0.0
2014-Sep-24 11:33N 34°43' W 076°42'0 0.0
2014-Sep-24 10:33N 34°43' W 076°42'0 0.0
2014-Sep-24 09:33N 34°43' W 076°42'0 0.0
2014-Sep-24 08:34N 34°43' W 076°42'0 0.0
2014-Sep-24 07:33N 34°43' W 076°42'0 0.0
2014-Sep-24 06:33N 34°43' W 076°42'0 0.0
2014-Sep-24 05:33N 34°43' W 076°42'0 0.0
2014-Sep-24 04:33N 34°43' W 076°42'0 0.0
2014-Sep-24 03:33N 34°43' W 076°42'0 0.0
2014-Sep-24 02:33N 34°43' W 076°42'0 0.0
2014-Sep-24 01:33N 34°43' W 076°42'0 0.0
2014-Sep-24 00:33N 34°43' W 076°42'0 0.0
2014-Sep-23 23:33N 34°43' W 076°42'0 0.0
2014-Sep-23 22:33N 34°43' W 076°42'0 0.0
2014-Sep-23 21:33N 34°43' W 076°42'3 3.3
2014-Sep-23 20:33N 34°40' W 076°40'4 4.2
2014-Sep-23 19:33N 34°36' W 076°38'1 1.2
2014-Sep-23 18:33N 34°37' W 076°38'1 0.6
2014-Sep-23 17:33N 34°38' W 076°37'4 3.9
2014-Sep-23 16:33N 34°34' W 076°39'3 3.3
2014-Sep-23 15:33N 34°31' W 076°41'  

Dump ship's entire track history